PWSweather.com
Personal Weather Stations
Station Observations
KMOCREVE3
Whispering Hills, Creve Coeur, MO 63146

Whispering HillsCreve Coeur, MO 63146

Lat: 38.68, Lon: -90.463

Elevation: 530

Station Type: Vantage Vue

Latest ConditionsUpdated 10:40:01 PM CDT Wednesday, May 27, 2015
Currently Today's Max Today's Min Today's Average
Temperature 68.0°F20.0°C 82.7°F28.2°C 68.0°F20.0°C 74.0°F23.3°C
Dew Point 61.2°F16.2°C 65.7°F18.7°C 59.0°F15.0°C 62.9°F17.2°C
Winds Calm Calm 4.0 mph SE6.4 kmh SE - 1.8 mph 2.9 kmh
Wind Gusts -- 13.0 mph20.9 kmh - -
Humidity 79% 88% 47% 69%
Pressure 30.08 in1018.6 mb 30.08 in1018.6 mb 29.93 in1013.5 mb -
Hour Temp Dew Point Humidity Winds Wind Gusts Pressure Precip Precip Rate Daily Precip Total
10:40 PM 68.0°F20.0°C 61.2°F16.2°C 79% Calm Calm -- 30.08 in1018.6 mb 0.00 in0.0 mm 0.00 in0.0 mm 0.00 in0.0 mm
10:30 PM 68.4°F20.2°C 61.3°F16.3°C 78% Calm Calm -- 30.08 in1018.6 mb 0.00 in0.0 mm 0.00 in0.0 mm 0.00 in0.0 mm
10:20 PM 69.0°F20.6°C 61.1°F16.2°C 76% Calm Calm -- 30.08 in1018.6 mb 0.00 in0.0 mm 0.00 in0.0 mm 0.00 in0.0 mm
10:10 PM 69.4°F20.8°C 61.1°F16.2°C 75% Calm Calm -- 30.08 in1018.6 mb 0.00 in0.0 mm 0.00 in0.0 mm 0.00 in0.0 mm
10:00 PM 69.9°F21.1°C 61.2°F16.2°C 74% Calm Calm -- 30.07 in1018.3 mb 0.00 in0.0 mm 0.00 in0.0 mm 0.00 in0.0 mm
09:50 PM 70.5°F21.4°C 61.4°F16.3°C 73% Calm Calm -- 30.07 in1018.3 mb 0.00 in0.0 mm 0.00 in0.0 mm 0.00 in0.0 mm
09:40 PM 71.0°F21.7°C 61.5°F16.4°C 72% Calm Calm -- 30.07 in1018.3 mb 0.00 in0.0 mm 0.00 in0.0 mm 0.00 in0.0 mm
09:30 PM 71.6°F22.0°C 62.1°F16.7°C 72% Calm Calm -- 30.07 in1018.3 mb 0.00 in0.0 mm 0.00 in0.0 mm 0.00 in0.0 mm
09:20 PM 72.1°F22.3°C 62.6°F17.0°C 72% Calm Calm -- 30.06 in1017.9 mb 0.00 in0.0 mm 0.00 in0.0 mm 0.00 in0.0 mm
09:10 PM 72.6°F22.6°C 61.8°F16.6°C 69% Calm Calm -- 30.06 in1017.9 mb 0.00 in0.0 mm 0.00 in0.0 mm 0.00 in0.0 mm
09:00 PM 73.2°F22.9°C 62.4°F16.9°C 69% Calm Calm -- 30.06 in1017.9 mb 0.00 in0.0 mm 0.00 in0.0 mm 0.00 in0.0 mm
08:50 PM 73.8°F23.2°C 63.0°F17.2°C 69% Calm Calm -- 30.06 in1017.9 mb 0.00 in0.0 mm 0.00 in0.0 mm 0.00 in0.0 mm
08:40 PM 74.5°F23.6°C 62.4°F16.9°C 66% Calm Calm -- 30.05 in1017.6 mb 0.00 in0.0 mm 0.00 in0.0 mm 0.00 in0.0 mm
08:30 PM 75.0°F23.9°C 62.0°F16.7°C 64% Calm Calm 1.0 mph1.6 kmh 30.05 in1017.6 mb 0.00 in0.0 mm 0.00 in0.0 mm 0.00 in0.0 mm
08:20 PM 75.6°F24.2°C 63.4°F17.4°C 66% Calm Calm 1.0 mph1.6 kmh 30.05 in1017.6 mb 0.00 in0.0 mm 0.00 in0.0 mm 0.00 in0.0 mm
08:10 PM 76.4°F24.7°C 62.4°F16.9°C 62% Calm Calm -- 30.05 in1017.6 mb 0.00 in0.0 mm 0.00 in0.0 mm 0.00 in0.0 mm
08:00 PM 77.4°F25.2°C 62.4°F16.9°C 60% Calm Calm 1.0 mph1.6 kmh 30.05 in1017.6 mb 0.00 in0.0 mm 0.00 in0.0 mm 0.00 in0.0 mm
07:50 PM 78.4°F25.8°C 61.9°F16.6°C 57% Calm Calm 1.0 mph1.6 kmh 30.05 in1017.6 mb 0.00 in0.0 mm 0.00 in0.0 mm 0.00 in0.0 mm
07:40 PM 79.2°F26.2°C 61.6°F16.4°C 55% 1.0 mph WNW1.6 kmh WNW 2.0 mph3.2 kmh 30.05 in1017.6 mb 0.00 in0.0 mm 0.00 in0.0 mm 0.00 in0.0 mm
07:30 PM 80.4°F26.9°C 61.2°F16.2°C 52% 1.0 mph NW1.6 kmh NW 3.0 mph4.8 kmh 30.04 in1017.3 mb 0.00 in0.0 mm 0.00 in0.0 mm 0.00 in0.0 mm
07:20 PM 80.2°F26.8°C 61.0°F16.1°C 52% 1.0 mph WNW1.6 kmh WNW 2.0 mph3.2 kmh 30.04 in1017.3 mb 0.00 in0.0 mm 0.00 in0.0 mm 0.00 in0.0 mm
07:10 PM 79.6°F26.4°C 61.0°F16.1°C 53% 1.0 mph WNW1.6 kmh WNW 3.0 mph4.8 kmh 30.04 in1017.3 mb 0.00 in0.0 mm 0.00 in0.0 mm 0.00 in0.0 mm
07:00 PM 79.8°F26.6°C 61.7°F16.5°C 54% 1.0 mph WNW1.6 kmh WNW 2.0 mph3.2 kmh 30.04 in1017.3 mb 0.00 in0.0 mm 0.00 in0.0 mm 0.00 in0.0 mm
06:50 PM 80.1°F26.7°C 62.0°F16.7°C 54% Calm Calm 2.0 mph3.2 kmh 30.03 in1016.9 mb 0.00 in0.0 mm 0.00 in0.0 mm 0.00 in0.0 mm
06:40 PM 80.0°F26.7°C 62.4°F16.9°C 55% 1.0 mph NW1.6 kmh NW 4.0 mph6.4 kmh 30.03 in1016.9 mb 0.00 in0.0 mm 0.00 in0.0 mm 0.00 in0.0 mm
06:30 PM 80.3°F26.8°C 62.1°F16.7°C 54% 1.0 mph NW1.6 kmh NW 4.0 mph6.4 kmh 30.03 in1016.9 mb 0.00 in0.0 mm 0.00 in0.0 mm 0.00 in0.0 mm
06:20 PM 80.4°F26.9°C 61.7°F16.5°C 53% 1.0 mph NW1.6 kmh NW 4.0 mph6.4 kmh 30.03 in1016.9 mb 0.00 in0.0 mm 0.00 in0.0 mm 0.00 in0.0 mm
06:10 PM 80.5°F26.9°C 60.7°F15.9°C 51% 2.0 mph NW3.2 kmh NW 4.0 mph6.4 kmh 30.03 in1016.9 mb 0.00 in0.0 mm 0.00 in0.0 mm 0.00 in0.0 mm
06:00 PM 80.3°F26.8°C 60.0°F15.6°C 50% 2.0 mph NW3.2 kmh NW 5.0 mph8.0 kmh 30.02 in1016.6 mb 0.00 in0.0 mm 0.00 in0.0 mm 0.00 in0.0 mm
05:50 PM 80.5°F26.9°C 59.0°F15.0°C 48% 1.0 mph NW1.6 kmh NW 4.0 mph6.4 kmh 30.03 in1016.9 mb 0.00 in0.0 mm 0.00 in0.0 mm 0.00 in0.0 mm
05:40 PM 81.0°F27.2°C 59.5°F15.3°C 48% 2.0 mph NW3.2 kmh NW 5.0 mph8.0 kmh 30.03 in1016.9 mb 0.00 in0.0 mm 0.00 in0.0 mm 0.00 in0.0 mm
05:30 PM 81.1°F27.3°C 59.6°F15.3°C 48% 1.0 mph NW1.6 kmh NW 5.0 mph8.0 kmh 30.03 in1016.9 mb 0.00 in0.0 mm 0.00 in0.0 mm 0.00 in0.0 mm
05:20 PM 81.2°F27.3°C 60.8°F16.0°C 50% 2.0 mph NW3.2 kmh NW 7.0 mph11.3 kmh 30.03 in1016.9 mb 0.00 in0.0 mm 0.00 in0.0 mm 0.00 in0.0 mm
05:10 PM 81.7°F27.6°C 59.5°F15.3°C 47% 1.0 mph NW1.6 kmh NW 5.0 mph8.0 kmh 30.03 in1016.9 mb 0.00 in0.0 mm 0.00 in0.0 mm 0.00 in0.0 mm
05:00 PM 81.9°F27.7°C 60.9°F16.1°C 49% 1.0 mph WNW1.6 kmh WNW 4.0 mph6.4 kmh 30.03 in1016.9 mb 0.00 in0.0 mm 0.00 in0.0 mm 0.00 in0.0 mm
04:50 PM 81.6°F27.6°C 62.3°F16.8°C 52% 2.0 mph NW3.2 kmh NW 11.0 mph17.7 kmh 30.04 in1017.3 mb 0.00 in0.0 mm 0.00 in0.0 mm 0.00 in0.0 mm
04:40 PM 81.6°F27.6°C 61.2°F16.2°C 50% 2.0 mph NW3.2 kmh NW 9.0 mph14.5 kmh 30.04 in1017.3 mb 0.00 in0.0 mm 0.00 in0.0 mm 0.00 in0.0 mm
04:30 PM 81.2°F27.3°C 61.4°F16.3°C 51% 2.0 mph NW3.2 kmh NW 8.0 mph12.9 kmh 30.04 in1017.3 mb 0.00 in0.0 mm 0.00 in0.0 mm 0.00 in0.0 mm
04:20 PM 81.3°F27.4°C 62.0°F16.7°C 52% 2.0 mph NW3.2 kmh NW 6.0 mph9.7 kmh 30.04 in1017.3 mb 0.00 in0.0 mm 0.00 in0.0 mm 0.00 in0.0 mm
04:10 PM 80.8°F27.1°C 61.5°F16.4°C 52% 1.0 mph NW1.6 kmh NW 4.0 mph6.4 kmh 30.04 in1017.3 mb 0.00 in0.0 mm 0.00 in0.0 mm 0.00 in0.0 mm
04:00 PM 80.8°F27.1°C 61.0°F16.1°C 51% 2.0 mph NW3.2 kmh NW 7.0 mph11.3 kmh 30.04 in1017.3 mb 0.00 in0.0 mm 0.00 in0.0 mm 0.00 in0.0 mm
03:50 PM 81.4°F27.4°C 62.1°F16.7°C 52% 2.0 mph NW3.2 kmh NW 8.0 mph12.9 kmh 30.04 in1017.3 mb 0.00 in0.0 mm 0.00 in0.0 mm 0.00 in0.0 mm
03:40 PM 81.0°F27.2°C 62.3°F16.8°C 53% 2.0 mph NW3.2 kmh NW 9.0 mph14.5 kmh 30.04 in1017.3 mb 0.00 in0.0 mm 0.00 in0.0 mm 0.00 in0.0 mm
03:30 PM 81.3°F27.4°C 62.0°F16.7°C 52% 2.0 mph NW3.2 kmh NW 7.0 mph11.3 kmh 30.04 in1017.3 mb 0.00 in0.0 mm 0.00 in0.0 mm 0.00 in0.0 mm
03:20 PM 81.3°F27.4°C 62.5°F16.9°C 53% 2.0 mph NW3.2 kmh NW 9.0 mph14.5 kmh 30.04 in1017.3 mb 0.00 in0.0 mm 0.00 in0.0 mm 0.00 in0.0 mm
03:10 PM 82.0°F27.8°C 62.6°F17.0°C 52% 2.0 mph WNW3.2 kmh WNW 9.0 mph14.5 kmh 30.04 in1017.3 mb 0.00 in0.0 mm 0.00 in0.0 mm 0.00 in0.0 mm
03:00 PM 82.1°F27.8°C 62.7°F17.1°C 52% 3.0 mph WNW4.8 kmh WNW 7.0 mph11.3 kmh 30.03 in1016.9 mb 0.00 in0.0 mm 0.00 in0.0 mm 0.00 in0.0 mm
02:50 PM 81.9°F27.7°C 63.6°F17.6°C 54% 2.0 mph WNW3.2 kmh WNW 10.0 mph16.1 kmh 30.03 in1016.9 mb 0.00 in0.0 mm 0.00 in0.0 mm 0.00 in0.0 mm
02:40 PM 81.8°F27.7°C 63.5°F17.5°C 54% 2.0 mph NW3.2 kmh NW 8.0 mph12.9 kmh 30.03 in1016.9 mb 0.00 in0.0 mm 0.00 in0.0 mm 0.00 in0.0 mm
02:30 PM 82.7°F28.2°C 63.8°F17.7°C 53% 2.0 mph WSW3.2 kmh WSW 8.0 mph12.9 kmh 30.03 in1016.9 mb 0.00 in0.0 mm 0.00 in0.0 mm 0.00 in0.0 mm
02:20 PM 82.0°F27.8°C 64.8°F18.2°C 56% 2.0 mph NW3.2 kmh NW 7.0 mph11.3 kmh 30.03 in1016.9 mb 0.00 in0.0 mm 0.00 in0.0 mm 0.00 in0.0 mm
02:10 PM 81.4°F27.4°C 63.7°F17.6°C 55% 2.0 mph W3.2 kmh W 7.0 mph11.3 kmh 30.03 in1016.9 mb 0.00 in0.0 mm 0.00 in0.0 mm 0.00 in0.0 mm
02:00 PM 80.6°F27.0°C 63.5°F17.5°C 56% 4.0 mph NW6.4 kmh NW 12.0 mph19.3 kmh 30.03 in1016.9 mb 0.00 in0.0 mm 0.00 in0.0 mm 0.00 in0.0 mm
01:50 PM 80.8°F27.1°C 64.1°F17.8°C 57% 3.0 mph WNW4.8 kmh WNW 9.0 mph14.5 kmh 30.03 in1016.9 mb 0.00 in0.0 mm 0.00 in0.0 mm 0.00 in0.0 mm
01:40 PM 80.3°F26.8°C 65.6°F18.7°C 61% 2.0 mph W3.2 kmh W 10.0 mph16.1 kmh 30.03 in1016.9 mb 0.00 in0.0 mm 0.00 in0.0 mm 0.00 in0.0 mm
01:30 PM 80.3°F26.8°C 65.6°F18.7°C 61% 3.0 mph WNW4.8 kmh WNW 9.0 mph14.5 kmh 30.03 in1016.9 mb 0.00 in0.0 mm 0.00 in0.0 mm 0.00 in0.0 mm
01:20 PM 80.4°F26.9°C 65.2°F18.4°C 60% 3.0 mph NW4.8 kmh NW 11.0 mph17.7 kmh 30.03 in1016.9 mb 0.00 in0.0 mm 0.00 in0.0 mm 0.00 in0.0 mm
01:10 PM 80.0°F26.7°C 64.4°F18.0°C 59% 3.0 mph WNW4.8 kmh WNW 8.0 mph12.9 kmh 30.03 in1016.9 mb 0.00 in0.0 mm 0.00 in0.0 mm 0.00 in0.0 mm
01:00 PM 80.2°F26.8°C 65.5°F18.6°C 61% 2.0 mph W3.2 kmh W 7.0 mph11.3 kmh 30.03 in1016.9 mb 0.00 in0.0 mm 0.00 in0.0 mm 0.00 in0.0 mm
12:50 PM 79.4°F26.3°C 65.2°F18.4°C 62% 3.0 mph WSW4.8 kmh WSW 8.0 mph12.9 kmh 30.03 in1016.9 mb 0.00 in0.0 mm 0.00 in0.0 mm 0.00 in0.0 mm
12:40 PM 78.9°F26.1°C 65.7°F18.7°C 64% 3.0 mph NW4.8 kmh NW 11.0 mph17.7 kmh 30.03 in1016.9 mb 0.00 in0.0 mm 0.00 in0.0 mm 0.00 in0.0 mm
12:30 PM 78.0°F25.6°C 64.8°F18.2°C 64% 3.0 mph NW4.8 kmh NW 9.0 mph14.5 kmh 30.03 in1016.9 mb 0.00 in0.0 mm 0.00 in0.0 mm 0.00 in0.0 mm
12:20 PM 78.1°F25.6°C 65.4°F18.6°C 65% 2.0 mph NW3.2 kmh NW 9.0 mph14.5 kmh 30.03 in1016.9 mb 0.00 in0.0 mm 0.00 in0.0 mm 0.00 in0.0 mm
12:10 PM 77.9°F25.5°C 65.2°F18.4°C 65% 1.0 mph WNW1.6 kmh WNW 3.0 mph4.8 kmh 30.03 in1016.9 mb 0.00 in0.0 mm 0.00 in0.0 mm 0.00 in0.0 mm
12:00 PM 77.0°F25.0°C 64.8°F18.2°C 66% 3.0 mph NW4.8 kmh NW 8.0 mph12.9 kmh 30.03 in1016.9 mb 0.00 in0.0 mm 0.00 in0.0 mm 0.00 in0.0 mm
11:50 AM 77.0°F25.0°C 64.3°F17.9°C 65% 2.0 mph NW3.2 kmh NW 4.0 mph6.4 kmh 30.03 in1016.9 mb 0.00 in0.0 mm 0.00 in0.0 mm 0.00 in0.0 mm
11:40 AM 76.8°F24.9°C 63.7°F17.6°C 64% 2.0 mph WNW3.2 kmh WNW 6.0 mph9.7 kmh 30.03 in1016.9 mb 0.00 in0.0 mm 0.00 in0.0 mm 0.00 in0.0 mm
11:30 AM 76.2°F24.6°C 63.6°F17.6°C 65% 3.0 mph NW4.8 kmh NW 7.0 mph11.3 kmh 30.03 in1016.9 mb 0.00 in0.0 mm 0.00 in0.0 mm 0.00 in0.0 mm
11:20 AM 76.7°F24.8°C 64.0°F17.8°C 65% 2.0 mph SSE3.2 kmh SSE 8.0 mph12.9 kmh 30.03 in1016.9 mb 0.00 in0.0 mm 0.00 in0.0 mm 0.00 in0.0 mm
11:10 AM 76.2°F24.6°C 64.4°F18.0°C 67% 1.0 mph S1.6 kmh S 6.0 mph9.7 kmh 30.03 in1016.9 mb 0.00 in0.0 mm 0.00 in0.0 mm 0.00 in0.0 mm
11:00 AM 75.2°F24.0°C 64.3°F17.9°C 69% 3.0 mph W4.8 kmh W 8.0 mph12.9 kmh 30.04 in1017.3 mb 0.00 in0.0 mm 0.00 in0.0 mm 0.00 in0.0 mm
10:50 AM 75.7°F24.3°C 64.4°F18.0°C 68% 3.0 mph SSE4.8 kmh SSE 8.0 mph12.9 kmh 30.04 in1017.3 mb 0.00 in0.0 mm 0.00 in0.0 mm 0.00 in0.0 mm
10:40 AM 74.9°F23.8°C 63.2°F17.3°C 67% 1.0 mph SSE1.6 kmh SSE 7.0 mph11.3 kmh 30.04 in1017.3 mb 0.00 in0.0 mm 0.00 in0.0 mm 0.00 in0.0 mm
10:30 AM 74.0°F23.3°C 63.6°F17.6°C 70% 2.0 mph SSE3.2 kmh SSE 6.0 mph9.7 kmh 30.04 in1017.3 mb 0.00 in0.0 mm 0.00 in0.0 mm 0.00 in0.0 mm
10:20 AM 73.5°F23.1°C 63.1°F17.3°C 70% 2.0 mph S3.2 kmh S 7.0 mph11.3 kmh 30.04 in1017.3 mb 0.00 in0.0 mm 0.00 in0.0 mm 0.00 in0.0 mm
10:10 AM 72.6°F22.6°C 63.1°F17.3°C 72% 1.0 mph SSE1.6 kmh SSE 7.0 mph11.3 kmh 30.03 in1016.9 mb 0.00 in0.0 mm 0.00 in0.0 mm 0.00 in0.0 mm
10:00 AM 71.6°F22.0°C 62.1°F16.7°C 72% 1.0 mph SSE1.6 kmh SSE 4.0 mph6.4 kmh 30.03 in1016.9 mb 0.00 in0.0 mm 0.00 in0.0 mm 0.00 in0.0 mm
09:50 AM 70.9°F21.6°C 61.4°F16.3°C 72% 2.0 mph SSE3.2 kmh SSE 4.0 mph6.4 kmh 30.03 in1016.9 mb 0.00 in0.0 mm 0.00 in0.0 mm 0.00 in0.0 mm
09:40 AM 70.4°F21.3°C 61.7°F16.5°C 74% 1.0 mph SE1.6 kmh SE 3.0 mph4.8 kmh 30.03 in1016.9 mb 0.00 in0.0 mm 0.00 in0.0 mm 0.00 in0.0 mm
09:30 AM 69.7°F20.9°C 61.4°F16.3°C 75% 2.0 mph SSE3.2 kmh SSE 4.0 mph6.4 kmh 30.03 in1016.9 mb 0.00 in0.0 mm 0.00 in0.0 mm 0.00 in0.0 mm
09:20 AM 69.2°F20.7°C 61.7°F16.5°C 77% 2.0 mph SE3.2 kmh SE 8.0 mph12.9 kmh 30.03 in1016.9 mb 0.00 in0.0 mm 0.00 in0.0 mm 0.00 in0.0 mm
09:10 AM 68.7°F20.4°C 61.6°F16.4°C 78% 4.0 mph SE6.4 kmh SE 8.0 mph12.9 kmh 30.03 in1016.9 mb 0.00 in0.0 mm 0.00 in0.0 mm 0.00 in0.0 mm
09:00 AM 68.5°F20.3°C 61.4°F16.3°C 78% 4.0 mph SE6.4 kmh SE 8.0 mph12.9 kmh 30.03 in1016.9 mb 0.00 in0.0 mm 0.00 in0.0 mm 0.00 in0.0 mm
08:50 AM 68.5°F20.3°C 61.7°F16.5°C 79% 4.0 mph SE6.4 kmh SE 11.0 mph17.7 kmh 30.04 in1017.3 mb 0.00 in0.0 mm 0.00 in0.0 mm 0.00 in0.0 mm
08:40 AM 68.4°F20.2°C 62.3°F16.8°C 81% 4.0 mph SE6.4 kmh SE 13.0 mph20.9 kmh 30.04 in1017.3 mb 0.00 in0.0 mm 0.00 in0.0 mm 0.00 in0.0 mm
08:30 AM 68.3°F20.2°C 62.6°F17.0°C 82% 3.0 mph SE4.8 kmh SE 12.0 mph19.3 kmh 30.05 in1017.6 mb 0.00 in0.0 mm 0.00 in0.0 mm 0.00 in0.0 mm
08:20 AM 68.3°F20.2°C 62.9°F17.2°C 83% 4.0 mph SE6.4 kmh SE 11.0 mph17.7 kmh 30.05 in1017.6 mb 0.00 in0.0 mm 0.00 in0.0 mm 0.00 in0.0 mm
08:10 AM 68.3°F20.2°C 62.9°F17.2°C 83% 3.0 mph SE4.8 kmh SE 8.0 mph12.9 kmh 30.05 in1017.6 mb 0.00 in0.0 mm 0.00 in0.0 mm 0.00 in0.0 mm
08:00 AM 68.4°F20.2°C 63.0°F17.2°C 83% 3.0 mph SE4.8 kmh SE 8.0 mph12.9 kmh 30.05 in1017.6 mb 0.00 in0.0 mm 0.00 in0.0 mm 0.00 in0.0 mm
07:50 AM 68.4°F20.2°C 63.4°F17.4°C 84% 4.0 mph SSE6.4 kmh SSE 9.0 mph14.5 kmh 30.05 in1017.6 mb 0.00 in0.0 mm 0.00 in0.0 mm 0.00 in0.0 mm
07:40 AM 68.2°F20.1°C 63.5°F17.5°C 85% 3.0 mph SE4.8 kmh SE 8.0 mph12.9 kmh 30.05 in1017.6 mb 0.00 in0.0 mm 0.00 in0.0 mm 0.00 in0.0 mm
07:30 AM 68.2°F20.1°C 64.2°F17.9°C 87% 2.0 mph SE3.2 kmh SE 11.0 mph17.7 kmh 30.04 in1017.3 mb 0.00 in0.0 mm 0.00 in0.0 mm 0.00 in0.0 mm
07:20 AM 68.1°F20.1°C 64.1°F17.8°C 87% 2.0 mph SSE3.2 kmh SSE 7.0 mph11.3 kmh 30.03 in1016.9 mb 0.00 in0.0 mm 0.00 in0.0 mm 0.00 in0.0 mm
07:10 AM 68.2°F20.1°C 64.2°F17.9°C 87% 2.0 mph S3.2 kmh S 8.0 mph12.9 kmh 30.03 in1016.9 mb 0.00 in0.0 mm 0.00 in0.0 mm 0.00 in0.0 mm
07:00 AM 68.4°F20.2°C 64.7°F18.2°C 88% 3.0 mph S4.8 kmh S 10.0 mph16.1 kmh 30.03 in1016.9 mb 0.00 in0.0 mm 0.00 in0.0 mm 0.00 in0.0 mm
06:50 AM 68.2°F20.1°C 64.5°F18.1°C 88% 2.0 mph SE3.2 kmh SE 7.0 mph11.3 kmh 30.02 in1016.6 mb 0.00 in0.0 mm 0.00 in0.0 mm 0.00 in0.0 mm
06:40 AM 68.3°F20.2°C 64.3°F17.9°C 87% 1.0 mph SE1.6 kmh SE 3.0 mph4.8 kmh 30.01 in1016.3 mb 0.00 in0.0 mm 0.00 in0.0 mm 0.00 in0.0 mm
06:30 AM 68.4°F20.2°C 64.0°F17.8°C 86% 1.0 mph SE1.6 kmh SE 4.0 mph6.4 kmh 30.01 in1016.3 mb 0.00 in0.0 mm 0.00 in0.0 mm 0.00 in0.0 mm
06:20 AM 68.3°F20.2°C 63.9°F17.7°C 86% 1.0 mph SE1.6 kmh SE 3.0 mph4.8 kmh 30.01 in1016.3 mb 0.00 in0.0 mm 0.00 in0.0 mm 0.00 in0.0 mm
06:10 AM 68.6°F20.3°C 63.9°F17.7°C 85% 2.0 mph SSE3.2 kmh SSE 4.0 mph6.4 kmh 30.01 in1016.3 mb 0.00 in0.0 mm 0.00 in0.0 mm 0.00 in0.0 mm
06:00 AM 68.6°F20.3°C 63.9°F17.7°C 85% 1.0 mph ESE1.6 kmh ESE 4.0 mph6.4 kmh 29.98 in1015.2 mb 0.00 in0.0 mm 0.00 in0.0 mm 0.00 in0.0 mm
05:50 AM 68.4°F20.2°C 63.7°F17.6°C 85% Calm Calm 7.0 mph11.3 kmh 29.96 in1014.6 mb 0.00 in0.0 mm 0.00 in0.0 mm 0.00 in0.0 mm
05:40 AM 68.6°F20.3°C 63.9°F17.7°C 85% 1.0 mph SSE1.6 kmh SSE 3.0 mph4.8 kmh 29.97 in1014.9 mb 0.00 in0.0 mm 0.00 in0.0 mm 0.00 in0.0 mm
05:30 AM 68.8°F20.4°C 63.8°F17.7°C 84% 1.0 mph SE1.6 kmh SE 3.0 mph4.8 kmh 29.97 in1014.9 mb 0.00 in0.0 mm 0.00 in0.0 mm 0.00 in0.0 mm
05:20 AM 68.8°F20.4°C 63.8°F17.7°C 84% 1.0 mph SSE1.6 kmh SSE 4.0 mph6.4 kmh 29.98 in1015.2 mb 0.00 in0.0 mm 0.00 in0.0 mm 0.00 in0.0 mm
05:10 AM 68.8°F20.4°C 63.8°F17.7°C 84% 2.0 mph SE3.2 kmh SE 5.0 mph8.0 kmh 29.97 in1014.9 mb 0.00 in0.0 mm 0.00 in0.0 mm 0.00 in0.0 mm
05:00 AM 68.8°F20.4°C 63.8°F17.7°C 84% 2.0 mph SE3.2 kmh SE 4.0 mph6.4 kmh 29.97 in1014.9 mb 0.00 in0.0 mm 0.00 in0.0 mm 0.00 in0.0 mm
04:50 AM 68.8°F20.4°C 63.8°F17.7°C 84% 1.0 mph SE1.6 kmh SE 4.0 mph6.4 kmh 29.97 in1014.9 mb 0.00 in0.0 mm 0.00 in0.0 mm 0.00 in0.0 mm
04:40 AM 68.6°F20.3°C 63.6°F17.6°C 84% 1.0 mph SE1.6 kmh SE 4.0 mph6.4 kmh 29.97 in1014.9 mb 0.00 in0.0 mm 0.00 in0.0 mm 0.00 in0.0 mm
04:30 AM 68.6°F20.3°C 63.6°F17.6°C 84% 2.0 mph SE3.2 kmh SE 3.0 mph4.8 kmh 29.97 in1014.9 mb 0.00 in0.0 mm 0.00 in0.0 mm 0.00 in0.0 mm
04:20 AM 68.7°F20.4°C 63.3°F17.4°C 83% 2.0 mph SE3.2 kmh SE 4.0 mph6.4 kmh 29.97 in1014.9 mb 0.00 in0.0 mm 0.00 in0.0 mm 0.00 in0.0 mm
04:10 AM 68.6°F20.3°C 63.6°F17.6°C 84% 2.0 mph SE3.2 kmh SE 4.0 mph6.4 kmh 29.96 in1014.6 mb 0.00 in0.0 mm 0.00 in0.0 mm 0.00 in0.0 mm
04:00 AM 68.7°F20.4°C 63.3°F17.4°C 83% 2.0 mph SE3.2 kmh SE 7.0 mph11.3 kmh 29.96 in1014.6 mb 0.00 in0.0 mm 0.00 in0.0 mm 0.00 in0.0 mm
03:50 AM 68.6°F20.3°C 63.2°F17.3°C 83% 3.0 mph SE4.8 kmh SE 6.0 mph9.7 kmh 29.96 in1014.6 mb 0.00 in0.0 mm 0.00 in0.0 mm 0.00 in0.0 mm
03:40 AM 68.6°F20.3°C 63.2°F17.3°C 83% 3.0 mph SE4.8 kmh SE 12.0 mph19.3 kmh 29.95 in1014.2 mb 0.00 in0.0 mm 0.00 in0.0 mm 0.00 in0.0 mm
03:30 AM 68.6°F20.3°C 63.2°F17.3°C 83% 3.0 mph SE4.8 kmh SE 6.0 mph9.7 kmh 29.95 in1014.2 mb 0.00 in0.0 mm 0.00 in0.0 mm 0.00 in0.0 mm
03:20 AM 68.7°F20.4°C 63.3°F17.4°C 83% 3.0 mph SE4.8 kmh SE 7.0 mph11.3 kmh 29.95 in1014.2 mb 0.00 in0.0 mm 0.00 in0.0 mm 0.00 in0.0 mm
03:10 AM 68.8°F20.4°C 63.1°F17.3°C 82% 2.0 mph SE3.2 kmh SE 6.0 mph9.7 kmh 29.95 in1014.2 mb 0.00 in0.0 mm 0.00 in0.0 mm 0.00 in0.0 mm
03:00 AM 68.9°F20.5°C 63.2°F17.3°C 82% 2.0 mph SE3.2 kmh SE 7.0 mph11.3 kmh 29.95 in1014.2 mb 0.00 in0.0 mm 0.00 in0.0 mm 0.00 in0.0 mm
02:50 AM 69.1°F20.6°C 63.0°F17.2°C 81% 2.0 mph SE3.2 kmh SE 5.0 mph8.0 kmh 29.95 in1014.2 mb 0.00 in0.0 mm 0.00 in0.0 mm 0.00 in0.0 mm
02:40 AM 69.2°F20.7°C 63.1°F17.3°C 81% 2.0 mph SE3.2 kmh SE 4.0 mph6.4 kmh 29.95 in1014.2 mb 0.00 in0.0 mm 0.00 in0.0 mm 0.00 in0.0 mm
02:30 AM 69.4°F20.8°C 63.0°F17.2°C 80% 2.0 mph SE3.2 kmh SE 4.0 mph6.4 kmh 29.95 in1014.2 mb 0.00 in0.0 mm 0.00 in0.0 mm 0.00 in0.0 mm
02:20 AM 69.5°F20.8°C 63.1°F17.3°C 80% 2.0 mph SE3.2 kmh SE 6.0 mph9.7 kmh 29.95 in1014.2 mb 0.00 in0.0 mm 0.00 in0.0 mm 0.00 in0.0 mm
02:10 AM 69.6°F20.9°C 63.2°F17.3°C 80% 2.0 mph SE3.2 kmh SE 7.0 mph11.3 kmh 29.94 in1013.9 mb 0.00 in0.0 mm 0.00 in0.0 mm 0.00 in0.0 mm
02:00 AM 69.7°F20.9°C 62.9°F17.2°C 79% 2.0 mph SE3.2 kmh SE 7.0 mph11.3 kmh 29.94 in1013.9 mb 0.00 in0.0 mm 0.00 in0.0 mm 0.00 in0.0 mm
01:50 AM 69.8°F21.0°C 63.0°F17.2°C 79% 2.0 mph SE3.2 kmh SE 7.0 mph11.3 kmh 29.94 in1013.9 mb 0.00 in0.0 mm 0.00 in0.0 mm 0.00 in0.0 mm
01:40 AM 69.9°F21.1°C 63.1°F17.3°C 79% 2.0 mph SE3.2 kmh SE 7.0 mph11.3 kmh 29.94 in1013.9 mb 0.00 in0.0 mm 0.00 in0.0 mm 0.00 in0.0 mm
01:30 AM 70.1°F21.2°C 62.9°F17.2°C 78% 3.0 mph SE4.8 kmh SE 8.0 mph12.9 kmh 29.93 in1013.5 mb 0.00 in0.0 mm 0.00 in0.0 mm 0.00 in0.0 mm
01:20 AM 70.2°F21.2°C 63.0°F17.2°C 78% 2.0 mph SE3.2 kmh SE 6.0 mph9.7 kmh 29.93 in1013.5 mb 0.00 in0.0 mm 0.00 in0.0 mm 0.00 in0.0 mm
01:10 AM 70.4°F21.3°C 62.8°F17.1°C 77% 3.0 mph SE4.8 kmh SE 7.0 mph11.3 kmh 29.93 in1013.5 mb 0.00 in0.0 mm 0.00 in0.0 mm 0.00 in0.0 mm
01:00 AM 70.6°F21.4°C 63.0°F17.2°C 77% 3.0 mph SE4.8 kmh SE 7.0 mph11.3 kmh 29.93 in1013.5 mb 0.00 in0.0 mm 0.00 in0.0 mm 0.00 in0.0 mm
12:50 AM 70.7°F21.5°C 62.8°F17.1°C 76% 3.0 mph SE4.8 kmh SE 7.0 mph11.3 kmh 29.94 in1013.9 mb 0.00 in0.0 mm 0.00 in0.0 mm 0.00 in0.0 mm
12:40 AM 71.0°F21.7°C 63.1°F17.3°C 76% 3.0 mph SE4.8 kmh SE 8.0 mph12.9 kmh 29.94 in1013.9 mb 0.00 in0.0 mm 0.00 in0.0 mm 0.00 in0.0 mm
12:30 AM 71.2°F21.8°C 62.9°F17.2°C 75% 3.0 mph SSE4.8 kmh SSE 7.0 mph11.3 kmh 29.94 in1013.9 mb 0.00 in0.0 mm 0.00 in0.0 mm 0.00 in0.0 mm
12:20 AM 71.3°F21.8°C 63.0°F17.2°C 75% 3.0 mph SE4.8 kmh SE 7.0 mph11.3 kmh 29.94 in1013.9 mb 0.00 in0.0 mm 0.00 in0.0 mm 0.00 in0.0 mm
12:10 AM 71.5°F21.9°C 62.8°F17.1°C 74% 3.0 mph SE4.8 kmh SE 7.0 mph11.3 kmh 29.94 in1013.9 mb 0.00 in0.0 mm 0.00 in0.0 mm 0.00 in0.0 mm
12:00 AM 71.5°F21.9°C 62.8°F17.1°C 74% 3.0 mph SE4.8 kmh SE 6.0 mph9.7 kmh 29.94 in1013.9 mb 0.00 in0.0 mm 0.00 in0.0 mm 0.00 in0.0 mm